Time;durP1;ratioP1;P1;durP2;ratioP2;P2;SDS_P1;SDS_P2;PMS_P1;PMS_P2;Temp;Humidity;BMP_temperature;BMP_pressure;BME280_temperature;BME280_humidity;BME280_pressure;Samples;Min_cycle;Max_cycle;Signal;HPM_P1;HPM_P2
2022/07/30 00:00:09;;;;;;;22.13;19.70;;;;;;;-144.27;100.00;69759.91;2066662;28;20443;-73
2022/07/30 00:01:11;;;;;;;25.73;19.00;;;;;;;-144.27;100.00;69759.91;2066874;28;20216;-73
2022/07/30 00:02:12;;;;;;;22.10;19.73;;;;;;;-144.27;100.00;69759.91;2065939;28;20933;-72
2022/07/30 00:03:14;;;;;;;22.73;18.77;;;;;;;-144.27;100.00;69759.91;2066011;28;20455;-73
2022/07/30 00:04:15;;;;;;;21.33;19.00;;;;;;;-144.27;100.00;69759.91;2058097;28;20189;-73
2022/07/30 00:05:17;;;;;;;21.07;18.87;;;;;;;-144.27;100.00;69759.91;2065921;28;20448;-72
2022/07/30 00:06:19;;;;;;;22.20;19.03;;;;;;;-144.27;100.00;69759.91;2064623;28;20809;-73
2022/07/30 00:07:22;;;;;;;20.63;18.50;;;;;;;-144.27;100.00;69759.91;2057971;28;20430;-73
2022/07/30 00:08:23;;;;;;;21.17;19.00;;;;;;;-144.27;100.00;69759.91;2066554;28;20439;-74
2022/07/30 00:09:25;;;;;;;22.03;19.63;;;;;;;-144.27;100.00;69759.91;2066806;28;20429;-72
2022/07/30 00:10:27;;;;;;;21.07;18.57;;;;;;;-144.27;100.00;69759.91;2057866;28;20206;-74
2022/07/30 00:11:28;;;;;;;21.57;18.57;;;;;;;-144.27;100.00;69759.91;2058191;28;20452;-72
2022/07/30 00:12:31;;;;;;;20.73;18.73;;;;;;;-144.27;100.00;69759.91;2066554;28;20435;-72
2022/07/30 00:13:32;;;;;;;21.17;18.37;;;;;;;-144.27;100.00;69759.91;2057870;28;20201;-73
2022/07/30 00:14:34;;;;;;;21.03;18.83;;;;;;;-144.27;100.00;69759.91;2057891;28;20436;-73
2022/07/30 00:15:35;;;;;;;19.63;17.63;;;;;;;-144.27;100.00;69759.91;2066697;28;20227;-73
2022/07/30 00:16:37;;;;;;;20.70;18.60;;;;;;;-144.27;100.00;69759.91;2057797;28;20438;-73
2022/07/30 00:17:37;;;;;;;20.77;18.63;;;;;;;-144.27;100.00;69759.91;2049548;28;20238;-72
2022/07/30 00:18:42;;;;;;;20.90;18.70;;;;;;;-144.27;100.00;69759.91;2057932;28;20412;-72
2022/07/30 00:19:43;;;;;;;21.30;18.47;;;;;;;-144.27;100.00;69759.91;2058447;28;20244;-72
2022/07/30 00:20:46;;;;;;;21.30;18.10;;;;;;;-144.27;100.00;69759.91;2058423;28;20452;-73
2022/07/30 00:21:47;;;;;;;20.40;18.30;;;;;;;-144.27;100.00;69759.91;2058297;28;20241;-73
2022/07/30 00:22:49;;;;;;;23.87;17.83;;;;;;;-144.27;100.00;69759.91;2057766;28;20444;-73
2022/07/30 00:23:49;;;;;;;22.03;19.70;;;;;;;-144.27;100.00;69759.91;2058080;28;20225;-72
2022/07/30 00:24:51;;;;;;;21.63;19.30;;;;;;;-144.27;100.00;69759.91;2058384;28;20433;-74
2022/07/30 00:25:52;;;;;;;19.73;17.63;;;;;;;-144.27;100.00;69759.91;2058407;28;20181;-72
2022/07/30 00:26:54;;;;;;;19.10;17.20;;;;;;;-144.27;100.00;69759.91;2065728;28;20523;-73
2022/07/30 00:27:58;;;;;;;21.83;19.40;;;;;;;-144.27;100.00;69759.91;2065384;28;21053;-72
2022/07/30 00:29:01;;;;;;;22.60;19.63;;;;;;;-144.27;100.00;69759.91;2057828;28;20433;-72
2022/07/30 00:30:03;;;;;;;22.50;18.53;;;;;;;-144.27;100.00;69759.91;2065690;28;20448;-73
2022/07/30 00:31:05;;;;;;;21.13;18.87;;;;;;;-144.27;100.00;69759.91;2065811;28;20420;-73
2022/07/30 00:32:06;;;;;;;21.73;19.23;;;;;;;-144.27;100.00;69759.91;2057670;28;20453;-73
2022/07/30 00:33:08;;;;;;;21.40;19.20;;;;;;;-144.27;100.00;69759.91;2049693;28;20809;-73
2022/07/30 00:34:09;;;;;;;22.13;19.60;;;;;;;-144.27;100.00;69759.91;2049721;28;20478;-72
2022/07/30 00:35:12;;;;;;;21.60;19.50;;;;;;;-144.27;100.00;69759.91;2057973;28;20928;-73
2022/07/30 00:36:13;;;;;;;22.40;19.53;;;;;;;-144.27;100.00;69759.91;2065120;28;20224;-73
2022/07/30 00:37:15;;;;;;;25.83;21.37;;;;;;;-144.27;100.00;69759.91;2065816;28;20489;-73
2022/07/30 00:38:20;;;;;;;26.07;21.37;;;;;;;-144.27;100.00;69759.91;2065602;28;20475;-73
2022/07/30 00:39:23;;;;;;;25.47;21.57;;;;;;;-144.27;100.00;69759.91;2064761;28;20515;-73
2022/07/30 00:40:25;;;;;;;24.83;21.73;;;;;;;-144.27;100.00;69759.91;2057891;28;20432;-72
2022/07/30 00:41:25;;;;;;;25.33;22.03;;;;;;;-144.27;100.00;69759.91;2058284;28;20433;-72
2022/07/30 00:42:38;;;;;;;23.73;21.23;;;;;;;-144.27;100.00;69759.91;2065586;28;20988;-73
2022/07/30 00:43:40;;;;;;;23.87;21.27;;;;;;;-144.27;100.00;69759.91;2064493;28;20184;-72
2022/07/30 00:44:41;;;;;;;24.33;20.70;;;;;;;-144.27;100.00;69759.91;2058295;28;20425;-73
2022/07/30 00:45:45;;;;;;;26.90;21.27;;;;;;;-144.27;100.00;69759.91;2065207;28;20459;-73
2022/07/30 00:46:46;;;;;;;23.10;20.47;;;;;;;-144.27;100.00;69759.91;2065383;28;20519;-73
2022/07/30 00:47:48;;;;;;;23.50;20.83;;;;;;;-144.27;100.00;69759.91;2058242;28;20432;-72
2022/07/30 00:48:49;;;;;;;28.40;20.43;;;;;;;-144.27;100.00;69759.91;2058182;28;20197;-73
2022/07/30 00:49:52;;;;;;;26.20;20.47;;;;;;;-144.27;100.00;69759.91;2065642;28;20444;-73
2022/07/30 00:50:54;;;;;;;24.57;21.23;;;;;;;-144.27;100.00;69759.91;2064582;28;20722;-73
2022/07/30 00:51:56;;;;;;;24.83;22.07;;;;;;;-144.27;100.00;69759.91;2057652;28;20847;-73
2022/07/30 00:52:56;;;;;;;25.67;21.60;;;;;;;-144.27;100.00;69759.91;2065549;28;20217;-73
2022/07/30 00:53:58;;;;;;;25.47;20.97;;;;;;;-144.27;100.00;69759.91;2065593;28;20440;-72
2022/07/30 00:54:59;;;;;;;23.60;21.13;;;;;;;-144.27;100.00;69759.91;2049622;28;20237;-73
2022/07/30 00:56:02;;;;;;;27.43;22.43;;;;;;;-144.27;100.00;69759.91;2049222;29;20444;-73
2022/07/30 00:57:04;;;;;;;29.03;21.13;;;;;;;-144.27;100.00;69759.91;2049898;28;20234;-73
2022/07/30 00:58:06;;;;;;;24.70;21.80;;;;;;;-144.27;100.00;69759.91;2049456;28;20450;-73
2022/07/30 00:59:08;;;;;;;27.27;22.20;;;;;;;-144.27;100.00;69759.91;2049606;28;20221;-73
2022/07/30 01:00:13;;;;;;;28.73;22.87;;;;;;;-144.27;100.00;69759.91;2057804;28;20429;-73
2022/07/30 01:01:14;;;;;;;26.00;21.50;;;;;;;-144.27;100.00;69759.91;2065636;28;20444;-73
2022/07/30 01:02:16;;;;;;;24.90;21.97;;;;;;;-144.27;100.00;69759.91;2065578;28;20482;-73
2022/07/30 01:03:17;;;;;;;26.10;21.97;;;;;;;-144.27;100.00;69759.91;2065540;28;20651;-73
2022/07/30 01:04:19;;;;;;;26.03;21.67;;;;;;;-144.27;100.00;69759.91;2065402;28;20448;-73
2022/07/30 01:05:20;;;;;;;31.73;21.57;;;;;;;-144.27;100.00;69759.91;2065485;28;20593;-73
2022/07/30 01:06:22;;;;;;;24.60;21.90;;;;;;;-144.27;100.00;69759.91;2064995;28;21060;-73
2022/07/30 01:07:23;;;;;;;24.40;21.60;;;;;;;-144.27;100.00;69759.91;2057414;28;20251;-72
2022/07/30 01:08:25;;;;;;;29.90;23.10;;;;;;;-144.27;100.00;69759.91;2057662;28;20479;-73
2022/07/30 01:09:25;;;;;;;27.90;22.53;;;;;;;-144.27;100.00;69759.91;2058095;28;20201;-73
2022/07/30 01:10:27;;;;;;;29.23;23.70;;;;;;;-144.27;100.00;69759.91;2057352;28;20441;-73
2022/07/30 01:11:34;;;;;;;30.33;23.60;;;;;;;-144.27;100.00;69759.91;2049156;28;20234;-73
2022/07/30 01:12:37;;;;;;;30.53;24.00;;;;;;;-144.27;100.00;69759.91;2057719;28;20804;-72
2022/07/30 01:13:39;;;;;;;28.37;24.83;;;;;;;-144.27;100.00;69759.91;2065466;28;20487;-73
2022/07/30 01:14:44;;;;;;;25.93;23.23;;;;;;;-144.27;100.00;69759.91;2065103;28;20420;-73
2022/07/30 01:15:45;;;;;;;27.10;22.73;;;;;;;-144.27;100.00;69759.91;2065322;28;20466;-72
2022/07/30 01:16:47;;;;;;;26.83;23.20;;;;;;;-144.27;100.00;69759.91;2065539;28;20437;-73
2022/07/30 01:17:50;;;;;;;27.23;22.70;;;;;;;-144.27;100.00;69759.91;2056890;28;20823;-73
2022/07/30 01:20:16;;;;;;;27.13;23.33;;;;;;;-144.27;100.00;69759.91;2057590;28;20436;-73
2022/07/30 01:21:20;;;;;;;27.87;22.27;;;;;;;-144.27;100.00;69759.91;2049361;28;20554;-73
2022/07/30 01:22:28;;;;;;;25.60;22.60;;;;;;;-144.27;100.00;69759.91;2049914;28;21006;-73
2022/07/30 01:23:37;;;;;;;31.00;22.57;;;;;;;-144.27;100.00;69759.91;2058358;28;20475;-73
2022/07/30 01:24:46;;;;;;;31.20;23.00;;;;;;;-144.27;100.00;69759.91;2063792;28;20460;-73
2022/07/30 01:25:55;;;;;;;29.43;23.47;;;;;;;-144.27;100.00;69759.91;2057297;28;20440;-72
2022/07/30 01:26:56;;;;;;;27.33;22.50;;;;;;;-144.27;100.00;69759.91;2050335;28;20449;-73
2022/07/30 01:28:01;;;;;;;26.93;23.00;;;;;;;-144.27;100.00;69759.91;2049309;29;20442;-73
2022/07/30 01:29:03;;;;;;;34.40;24.53;;;;;;;-144.27;100.00;69759.91;2049813;28;20636;-73
2022/07/30 01:30:07;;;;;;;28.73;25.13;;;;;;;-144.27;100.00;69759.91;2049373;28;20450;-73
2022/07/30 01:31:11;;;;;;;33.50;25.13;;;;;;;-144.27;100.00;69759.91;2057258;28;20485;-73
2022/07/30 01:32:12;;;;;;;33.23;23.77;;;;;;;-144.27;100.00;69759.91;2057503;28;20457;-73
2022/07/30 01:33:16;;;;;;;26.93;22.80;;;;;;;-144.27;100.00;69759.91;2057269;28;20995;-73
2022/07/30 01:34:17;;;;;;;27.97;22.80;;;;;;;-144.27;100.00;69759.91;2057577;28;20437;-73
2022/07/30 01:35:20;;;;;;;25.40;22.63;;;;;;;-144.27;100.00;69759.91;2065298;28;20455;-73
2022/07/30 01:36:22;;;;;;;29.73;23.23;;;;;;;-144.27;100.00;69759.91;2064559;28;20213;-73
2022/07/30 01:37:24;;;;;;;28.57;21.80;;;;;;;-144.27;100.00;69759.91;2065301;28;20543;-72
2022/07/30 01:38:26;;;;;;;24.17;21.60;;;;;;;-144.27;100.00;69759.91;2065165;28;21009;-73
2022/07/30 01:39:30;;;;;;;26.00;22.10;;;;;;;-144.27;100.00;69759.91;2049051;28;20434;-73
2022/07/30 01:40:31;;;;;;;25.27;22.53;;;;;;;-144.27;100.00;69759.91;2049670;28;20465;-72
2022/07/30 01:41:35;;;;;;;27.70;22.40;;;;;;;-144.27;100.00;69759.91;2049276;28;20426;-72
2022/07/30 01:42:37;;;;;;;28.60;21.70;;;;;;;-144.27;100.00;69759.91;2049499;28;20449;-73
2022/07/30 01:43:40;;;;;;;27.63;21.93;;;;;;;-144.27;100.00;69759.91;2057213;28;20971;-73
2022/07/30 01:44:41;;;;;;;26.67;22.77;;;;;;;-144.27;100.00;69759.91;2049238;28;20462;-72
2022/07/30 01:45:44;;;;;;;35.03;24.47;;;;;;;-144.27;100.00;69759.91;2049239;28;20456;-73
2022/07/30 01:46:48;;;;;;;29.40;23.40;;;;;;;-144.27;100.00;69759.91;2050019;28;20446;-73
2022/07/30 01:47:52;;;;;;;29.07;23.07;;;;;;;-144.27;100.00;69759.91;2049190;29;20541;-73
2022/07/30 01:48:53;;;;;;;29.27;23.10;;;;;;;-144.27;100.00;69759.91;2049531;28;20555;-73
2022/07/30 01:49:58;;;;;;;31.33;23.20;;;;;;;-144.27;100.00;69759.91;2049299;28;20454;-73
2022/07/30 01:51:03;;;;;;;31.73;23.07;;;;;;;-144.27;100.00;69759.91;2049042;28;20458;-73
2022/07/30 01:52:05;;;;;;;28.23;22.70;;;;;;;-144.27;100.00;69759.91;2049884;28;20446;-73
2022/07/30 01:53:06;;;;;;;27.80;22.90;;;;;;;-144.27;100.00;69759.91;2049380;28;20438;-73
2022/07/30 01:54:09;;;;;;;29.00;22.33;;;;;;;-144.27;100.00;69759.91;2049287;28;20467;-73
2022/07/30 01:55:16;;;;;;;30.67;22.73;;;;;;;-144.27;100.00;69759.91;2049434;28;20442;-73
2022/07/30 01:56:19;;;;;;;27.13;23.03;;;;;;;-144.27;100.00;69759.91;2049941;28;20520;-73
2022/07/30 01:57:22;;;;;;;25.33;21.67;;;;;;;-144.27;100.00;69759.91;2049428;28;20457;-73
2022/07/30 01:58:27;;;;;;;30.93;22.17;;;;;;;-144.27;100.00;69759.91;2057302;28;20421;-73
2022/07/30 01:59:32;;;;;;;24.10;21.50;;;;;;;-144.27;100.00;69759.91;2065264;28;20839;-73
2022/07/30 02:00:39;;;;;;;24.70;21.97;;;;;;;-144.27;100.00;69759.91;2057113;28;20449;-74
2022/07/30 02:01:39;;;;;;;28.07;21.30;;;;;;;-144.27;100.00;69759.91;2049487;28;20866;-74
2022/07/30 02:02:41;;;;;;;23.50;20.70;;;;;;;-144.27;100.00;69759.91;2049202;29;20454;-73
2022/07/30 02:03:42;;;;;;;24.70;21.60;;;;;;;-144.27;100.00;69759.91;2049218;28;20224;-73
2022/07/30 02:04:46;;;;;;;22.90;20.60;;;;;;;-144.27;100.00;69759.91;2049091;28;20796;-73
2022/07/30 02:05:51;;;;;;;23.03;20.70;;;;;;;-144.27;100.00;69759.91;2049603;28;20480;-73
2022/07/30 02:07:01;;;;;;;22.63;20.00;;;;;;;-144.27;100.00;69759.91;2056819;28;20460;-73
2022/07/30 02:08:05;;;;;;;27.33;21.60;;;;;;;-144.27;100.00;69759.91;2058041;28;20499;-73
2022/07/30 02:09:07;;;;;;;25.07;20.73;;;;;;;-144.27;100.00;69759.91;2057085;28;20467;-74
2022/07/30 02:10:11;;;;;;;24.90;21.23;;;;;;;-144.27;100.00;69759.91;2049279;28;20446;-73
2022/07/30 02:12:27;;;;;;;26.50;20.70;;;;;;;-144.27;100.00;69759.91;2057260;28;20439;-73
2022/07/30 02:12:50;;;;;;;24.03;21.50;;;;;;;-144.27;100.00;69759.91;2060345;28;20510;-73
2022/07/30 02:13:58;;;;;;;28.97;21.23;;;;;;;-144.27;100.00;69759.91;2057090;28;20873;-73
2022/07/30 02:15:07;;;;;;;32.03;21.87;;;;;;;-144.27;100.00;69759.91;2057099;28;20457;-73
2022/07/30 02:16:15;;;;;;;26.00;22.10;;;;;;;-144.27;100.00;69759.91;2057764;28;20418;-73
2022/07/30 02:17:20;;;;;;;23.60;20.80;;;;;;;-144.27;100.00;69759.91;2065009;28;20447;-73
2022/07/30 02:18:31;;;;;;;32.77;22.17;;;;;;;-144.27;100.00;69759.91;2064572;28;20452;-74
2022/07/30 02:19:36;;;;;;;26.67;21.17;;;;;;;-144.27;100.00;69759.91;2050413;28;20983;-73
2022/07/30 02:20:39;;;;;;;28.07;22.13;;;;;;;-144.27;100.00;69759.91;2049263;28;20486;-73
2022/07/30 02:21:43;;;;;;;28.17;23.10;;;;;;;-144.27;100.00;69759.91;2048856;28;20497;-73
2022/07/30 02:22:46;;;;;;;26.77;21.43;;;;;;;-144.27;100.00;69759.91;2049109;28;20776;-73
2022/07/30 02:23:47;;;;;;;28.40;23.00;;;;;;;-144.27;100.00;69759.91;2057215;28;20947;-73
2022/07/30 02:24:51;;;;;;;25.30;22.60;;;;;;;-144.27;100.00;69759.91;2057726;28;20807;-72
2022/07/30 02:25:52;;;;;;;29.40;22.60;;;;;;;-144.27;100.00;69759.91;2057057;28;20962;-73
2022/07/30 02:27:03;;;;;;;29.20;22.37;;;;;;;-144.27;100.00;69759.91;2057472;28;20936;-73
2022/07/30 02:28:10;;;;;;;24.73;21.87;;;;;;;-144.27;100.00;69759.91;2057079;28;20496;-72
2022/07/30 02:29:13;;;;;;;27.53;22.70;;;;;;;-144.27;100.00;69759.91;2049453;28;20473;-73
2022/07/30 02:30:14;;;;;;;25.33;22.07;;;;;;;-144.27;100.00;69759.91;2058265;28;20476;-72
2022/07/30 02:31:19;;;;;;;28.03;22.57;;;;;;;-144.27;100.00;69759.91;2059402;28;20433;-73
2022/07/30 02:32:22;;;;;;;26.47;21.80;;;;;;;-144.27;100.00;69759.91;2066759;28;20493;-74
2022/07/30 02:33:26;;;;;;;29.60;23.17;;;;;;;-144.27;100.00;69759.91;2058241;28;20444;-73
2022/07/30 02:34:28;;;;;;;25.63;22.00;;;;;;;-144.27;100.00;69759.91;2058725;28;20432;-73
2022/07/30 02:35:32;;;;;;;26.33;21.70;;;;;;;-144.27;100.00;69759.91;2066617;28;20448;-72
2022/07/30 02:36:34;;;;;;;25.90;21.33;;;;;;;-144.27;100.00;69759.91;2066034;28;20455;-73
2022/07/30 02:37:37;;;;;;;32.33;22.03;;;;;;;-144.27;100.00;69759.91;2050678;28;21056;-73
2022/07/30 02:38:40;;;;;;;25.30;21.67;;;;;;;-144.27;100.00;69759.91;2058798;28;20464;-73
2022/07/30 02:39:42;;;;;;;25.73;20.93;;;;;;;-144.27;100.00;69759.91;2066469;28;20639;-73
2022/07/30 02:40:45;;;;;;;30.97;20.87;;;;;;;-144.27;100.00;69759.91;2066403;28;20440;-73
2022/07/30 02:41:47;;;;;;;23.87;21.13;;;;;;;-144.27;100.00;69759.91;2058660;28;20425;-72
2022/07/30 02:42:50;;;;;;;24.53;20.57;;;;;;;-144.27;100.00;69759.91;2066607;28;20476;-73
2022/07/30 02:43:57;;;;;;;25.30;21.00;;;;;;;-144.27;100.00;69759.91;2066100;28;20853;-73
2022/07/30 02:44:58;;;;;;;27.80;22.60;;;;;;;-144.27;100.00;69759.91;2050775;28;20438;-73
2022/07/30 02:46:00;;;;;;;28.33;21.00;;;;;;;-144.27;100.00;69759.91;2058537;28;20893;-73
2022/07/30 02:47:18;;;;;;;23.83;21.20;;;;;;;-144.27;100.00;69759.91;2064634;28;20193;-73
2022/07/30 02:48:27;;;;;;;24.53;20.50;;;;;;;-144.27;100.00;69759.91;2051885;28;20879;-73
2022/07/30 02:49:28;;;;;;;29.83;22.03;;;;;;;-144.27;100.00;69759.91;2050661;28;20484;-73
2022/07/30 02:50:30;;;;;;;26.57;21.60;;;;;;;-144.27;100.00;69759.91;2050551;28;20591;-73
2022/07/30 02:51:32;;;;;;;26.07;22.17;;;;;;;-144.27;100.00;69759.91;2058251;28;20476;-73
2022/07/30 02:52:35;;;;;;;25.87;21.20;;;;;;;-144.27;100.00;69759.91;2066473;28;20478;-73
2022/07/30 02:53:36;;;;;;;23.83;21.07;;;;;;;-144.27;100.00;69759.91;2066497;28;20463;-72
2022/07/30 02:54:40;;;;;;;24.90;21.33;;;;;;;-144.27;100.00;69759.91;2066453;28;20447;-72
2022/07/30 02:55:43;;;;;;;27.93;22.87;;;;;;;-144.27;100.00;69759.91;2050854;28;20968;-73
2022/07/30 02:56:46;;;;;;;27.37;21.23;;;;;;;-144.27;100.00;69759.91;2058537;28;20448;-73
2022/07/30 02:57:51;;;;;;;27.80;22.37;;;;;;;-144.27;100.00;69759.91;2066482;28;20443;-73
2022/07/30 02:58:52;;;;;;;25.27;22.63;;;;;;;-144.27;100.00;69759.91;2066133;28;20424;-72
2022/07/30 02:59:55;;;;;;;30.23;23.97;;;;;;;-144.27;100.00;69759.91;2058327;28;20476;-73
2022/07/30 03:00:58;;;;;;;31.90;24.73;;;;;;;-144.27;100.00;69759.91;2050599;28;20450;-74
2022/07/30 03:02:01;;;;;;;35.00;26.00;;;;;;;-144.27;100.00;69759.91;2058373;28;20460;-73
2022/07/30 03:03:04;;;;;;;32.47;26.30;;;;;;;-144.27;100.00;69759.91;2058712;28;20457;-73
2022/07/30 03:04:07;;;;;;;29.73;24.80;;;;;;;-144.27;100.00;69759.91;2065559;28;20440;-72
2022/07/30 03:05:08;;;;;;;36.90;26.70;;;;;;;-144.27;100.00;69759.91;2050534;28;20862;-72
2022/07/30 03:06:11;;;;;;;36.30;25.30;;;;;;;-144.27;100.00;69759.91;2057965;28;20548;-73
2022/07/30 03:07:13;;;;;;;28.23;24.77;;;;;;;-144.27;100.00;69759.91;2066426;28;20256;-72
2022/07/30 03:08:17;;;;;;;33.30;24.73;;;;;;;-144.27;100.00;69759.91;2066292;28;20781;-73
2022/07/30 03:09:20;;;;;;;36.83;26.10;;;;;;;-144.27;100.00;69759.91;2058455;28;20440;-73
2022/07/30 03:10:22;;;;;;;33.23;26.43;;;;;;;-144.27;100.00;69759.91;2066340;28;20444;-73
2022/07/30 03:11:23;;;;;;;33.83;27.47;;;;;;;-144.27;100.00;69759.91;2066309;28;20467;-73
2022/07/30 03:12:25;;;;;;;32.10;26.97;;;;;;;-144.27;100.00;69759.91;2050406;28;20529;-72
2022/07/30 03:13:26;;;;;;;36.50;26.57;;;;;;;-144.27;100.00;69759.91;2058519;28;20439;-73
2022/07/30 03:14:30;;;;;;;32.47;26.53;;;;;;;-144.27;100.00;69759.91;2066289;28;20516;-73
2022/07/30 03:15:36;;;;;;;29.40;26.13;;;;;;;-144.27;100.00;69759.91;2066143;28;20197;-73
2022/07/30 03:16:38;;;;;;;35.90;27.10;;;;;;;-144.27;100.00;69759.91;2058445;28;20954;-72
2022/07/30 03:17:43;;;;;;;28.83;25.70;;;;;;;-144.27;100.00;69759.91;2058083;28;20559;-73
2022/07/30 03:18:44;;;;;;;33.93;26.03;;;;;;;-144.27;100.00;69759.91;2050632;28;20549;-73
2022/07/30 03:19:48;;;;;;;36.93;27.47;;;;;;;-144.27;100.00;69759.91;2050354;28;20453;-73
2022/07/30 03:20:50;;;;;;;34.07;26.50;;;;;;;-144.27;100.00;69759.91;2050493;28;20512;-73
2022/07/30 03:21:54;;;;;;;32.27;26.87;;;;;;;-144.27;100.00;69759.91;2058074;28;20493;-73
2022/07/30 03:22:58;;;;;;;31.60;25.83;;;;;;;-144.27;100.00;69759.91;2058878;28;20429;-73
2022/07/30 03:24:05;;;;;;;33.63;26.93;;;;;;;-144.27;100.00;69759.91;2066269;28;20514;-73
2022/07/30 03:25:07;;;;;;;34.27;27.87;;;;;;;-144.27;100.00;69759.91;2065871;28;20455;-73
2022/07/30 03:26:10;;;;;;;38.73;27.97;;;;;;;-144.27;100.00;69759.91;2050325;28;20445;-72
2022/07/30 03:27:12;;;;;;;37.03;28.10;;;;;;;-144.27;100.00;69759.91;2050352;28;20458;-72
2022/07/30 03:28:14;;;;;;;38.23;28.20;;;;;;;-144.27;100.00;69759.91;2050517;28;20446;-73
2022/07/30 03:29:16;;;;;;;34.97;29.50;;;;;;;-144.27;100.00;69759.91;2050305;28;20446;-73
2022/07/30 03:30:19;;;;;;;39.87;30.03;;;;;;;-144.27;100.00;69759.91;2050416;28;20804;-73
2022/07/30 03:31:21;;;;;;;31.43;28.00;;;;;;;-144.27;100.00;69759.91;2050231;28;20473;-73
2022/07/30 03:32:23;;;;;;;33.40;28.23;;;;;;;-144.27;100.00;69759.91;2058147;28;20459;-73
2022/07/30 03:33:24;;;;;;;37.30;29.37;;;;;;;-144.27;100.00;69759.91;2050284;28;20438;-73
2022/07/30 03:34:26;;;;;;;35.80;28.43;;;;;;;-144.27;100.00;69759.91;2050266;28;20520;-73
2022/07/30 03:35:28;;;;;;;31.30;26.93;;;;;;;-144.27;100.00;69759.91;2050295;28;20464;-73
2022/07/30 03:36:30;;;;;;;36.40;28.63;;;;;;;-144.27;100.00;69759.91;2049715;28;20458;-73
2022/07/30 03:37:31;;;;;;;33.00;27.30;;;;;;;-144.27;100.00;69759.91;2050224;28;20847;-73
2022/07/30 03:38:35;;;;;;;34.43;27.73;;;;;;;-144.27;100.00;69759.91;2049969;28;20446;-73
2022/07/30 03:39:36;;;;;;;31.47;26.17;;;;;;;-144.27;100.00;69759.91;2050287;28;20470;-73
2022/07/30 03:40:40;;;;;;;33.20;26.47;;;;;;;-144.27;100.00;69759.91;2049936;28;20541;-73
2022/07/30 03:41:41;;;;;;;33.83;27.50;;;;;;;-144.27;100.00;69759.91;2050339;28;20465;-73
2022/07/30 03:42:48;;;;;;;33.50;27.43;;;;;;;-144.27;100.00;69759.91;2050833;28;20476;-73
2022/07/30 03:43:54;;;;;;;32.13;28.10;;;;;;;-144.27;100.00;69759.91;2050772;28;20446;-73
2022/07/30 03:44:55;;;;;;;30.23;26.57;;;;;;;-144.27;100.00;69759.91;2050169;28;20438;-73
2022/07/30 03:45:57;;;;;;;32.67;28.30;;;;;;;-144.27;100.00;69759.91;2050190;28;20509;-73
2022/07/30 03:47:08;;;;;;;34.03;28.30;;;;;;;-144.27;100.00;69759.91;2051173;28;20480;-73
2022/07/30 03:48:17;;;;;;;39.17;29.33;;;;;;;-144.27;100.00;69759.91;2058425;28;20437;-73
2022/07/30 03:49:22;;;;;;;36.10;28.80;;;;;;;-144.27;100.00;69759.91;2058501;28;20495;-73
2022/07/30 03:50:25;;;;;;;31.90;27.33;;;;;;;-144.27;100.00;69759.91;2065452;28;20444;-73
2022/07/30 03:51:27;;;;;;;36.67;29.37;;;;;;;-144.27;100.00;69759.91;2049841;28;20500;-73
2022/07/30 03:52:29;;;;;;;37.13;29.50;;;;;;;-144.27;100.00;69759.91;2058210;28;20476;-73
2022/07/30 03:53:31;;;;;;;34.97;28.57;;;;;;;-144.27;100.00;69759.91;2065910;28;20459;-73
2022/07/30 03:55:11;;;;;;;37.23;29.43;;;;;;;-144.27;100.00;69759.91;2058284;28;20449;-73
2022/07/30 03:56:13;;;;;;;40.47;30.43;;;;;;;-144.27;100.00;69759.91;2058622;28;20461;-73
2022/07/30 03:57:32;;;;;;;35.43;28.80;;;;;;;-144.27;100.00;69759.91;2066019;28;20518;-73
2022/07/30 03:58:33;;;;;;;39.53;29.77;;;;;;;-144.27;100.00;69759.91;2065613;28;20901;-73
2022/07/30 03:59:35;;;;;;;37.00;29.47;;;;;;;-144.27;100.00;69759.91;2049922;29;20496;-73
2022/07/30 04:00:37;;;;;;;40.13;30.17;;;;;;;-144.27;100.00;69759.91;2050016;28;20622;-72
2022/07/30 04:01:39;;;;;;;36.70;28.37;;;;;;;-144.27;100.00;69759.91;2058177;28;20445;-72
2022/07/30 04:02:56;;;;;;;41.40;30.43;;;;;;;-144.27;100.00;69759.91;2066129;28;20451;-72
2022/07/30 04:04:12;;;;;;;38.73;28.73;;;;;;;-144.27;100.00;69759.91;2064508;28;20851;-71
2022/07/30 04:05:16;;;;;;;42.00;30.23;;;;;;;-144.27;100.00;69759.91;2057954;28;20441;-72
2022/07/30 04:06:19;;;;;;;38.10;29.40;;;;;;;-144.27;100.00;69759.91;2049772;28;20470;-72
2022/07/30 04:07:21;;;;;;;41.03;30.87;;;;;;;-144.27;100.00;69759.91;2058058;28;20453;-73
2022/07/30 04:08:21;;;;;;;42.57;31.30;;;;;;;-144.27;100.00;69759.91;2065855;28;20626;-72
2022/07/30 04:09:23;;;;;;;41.27;31.43;;;;;;;-144.27;100.00;69759.91;2057912;28;20445;-72
2022/07/30 04:10:24;;;;;;;38.40;29.93;;;;;;;-144.27;100.00;69759.91;2049890;28;20677;-72
2022/07/30 04:11:36;;;;;;;37.73;30.60;;;;;;;-144.27;100.00;69759.91;2058207;28;20766;-71
2022/07/30 04:12:41;;;;;;;41.77;31.37;;;;;;;-144.27;100.00;69759.91;2065910;28;20452;-72
2022/07/30 04:13:43;;;;;;;40.20;31.27;;;;;;;-144.27;100.00;69759.91;2065625;28;20974;-72
2022/07/30 04:14:44;;;;;;;48.00;32.13;;;;;;;-144.27;100.00;69759.91;2049791;28;20565;-72
2022/07/30 04:15:50;;;;;;;43.40;33.83;;;;;;;-144.27;100.00;69759.91;2050089;29;20438;-72
2022/07/30 04:16:55;;;;;;;44.23;33.07;;;;;;;-144.27;100.00;69759.91;2050461;28;20225;-72
2022/07/30 04:18:04;;;;;;;40.17;31.23;;;;;;;-144.27;100.00;69759.91;2050853;28;20500;-71
2022/07/30 04:19:09;;;;;;;42.50;31.07;;;;;;;-144.27;100.00;69759.91;2057708;28;20951;-72
2022/07/30 04:20:13;;;;;;;42.40;31.83;;;;;;;-144.27;100.00;69759.91;2057960;28;20449;-72
2022/07/30 04:21:15;;;;;;;40.87;31.77;;;;;;;-144.27;100.00;69759.91;2065101;28;20516;-71
2022/07/30 04:22:22;;;;;;;39.93;30.73;;;;;;;-144.27;100.00;69759.91;2057774;28;20951;-72
2022/07/30 04:23:22;;;;;;;42.47;31.50;;;;;;;-144.27;100.00;69759.91;2050445;28;20446;-72
2022/07/30 04:24:25;;;;;;;43.20;32.07;;;;;;;-144.27;100.00;69759.91;2049832;28;20470;-72
2022/07/30 04:25:30;;;;;;;40.67;31.97;;;;;;;-144.27;100.00;69759.91;2057909;28;20206;-71
2022/07/30 04:26:35;;;;;;;37.93;30.07;;;;;;;-144.27;100.00;69759.91;2049787;28;20483;-72
2022/07/30 04:27:39;;;;;;;39.73;30.57;;;;;;;-144.27;100.00;69759.91;2050474;28;20429;-72
2022/07/30 04:28:42;;;;;;;41.70;31.70;;;;;;;-144.27;100.00;69759.91;2050217;28;20450;-72
2022/07/30 04:29:43;;;;;;;43.20;32.43;;;;;;;-144.27;100.00;69759.91;2049828;28;20481;-72
2022/07/30 04:30:45;;;;;;;39.90;30.73;;;;;;;-144.27;100.00;69759.91;2057811;28;20444;-72
2022/07/30 04:31:47;;;;;;;43.57;30.67;;;;;;;-144.27;100.00;69759.91;2065743;28;20204;-72
2022/07/30 04:33:21;;;;;;;40.70;29.57;;;;;;;-144.27;100.00;69759.91;2053646;28;20460;-72
2022/07/30 04:34:46;;;;;;;41.47;30.57;;;;;;;-144.27;100.00;69759.91;2065705;28;20448;-72
2022/07/30 04:35:48;;;;;;;39.27;30.07;;;;;;;-144.27;100.00;69759.91;2064999;28;20439;-71
2022/07/30 04:36:56;;;;;;;42.77;30.97;;;;;;;-144.27;100.00;69759.91;2050264;28;20478;-72
2022/07/30 04:37:57;;;;;;;41.13;30.80;;;;;;;-144.27;100.00;69759.91;2049688;29;20438;-72
2022/07/30 04:38:59;;;;;;;46.30;32.67;;;;;;;-144.27;100.00;69759.91;2049745;28;20780;-71
2022/07/30 04:40:04;;;;;;;38.50;30.50;;;;;;;-144.27;100.00;69759.91;2049675;28;20478;-72
2022/07/30 04:41:05;;;;;;;36.90;31.50;;;;;;;-144.27;100.00;69759.91;2057641;28;20452;-72
2022/07/30 04:42:28;;;;;;;48.40;32.13;;;;;;;-144.27;100.00;69759.91;2049414;29;20446;-72
2022/07/30 04:43:38;;;;;;;43.90;32.00;;;;;;;-144.27;100.00;69759.91;2065199;28;20530;-72
2022/07/30 04:44:40;;;;;;;37.13;31.47;;;;;;;-144.27;100.00;69759.91;2065618;28;20943;-72